sensor_id;sensor_type;location;lat;lon;timestamp;P1;durP1;ratioP1;P2;durP2;ratioP2
76599;SDS011;65489;52.048;6.090;2023-06-04T00:02:10;0.28;;;0.22;;
76599;SDS011;65489;52.048;6.090;2023-06-04T00:04:35;0.43;;;0.32;;
76599;SDS011;65489;52.048;6.090;2023-06-04T00:07:01;0.50;;;0.32;;
76599;SDS011;65489;52.048;6.090;2023-06-04T00:09:26;0.40;;;0.30;;
76599;SDS011;65489;52.048;6.090;2023-06-04T00:11:52;0.88;;;0.30;;
76599;SDS011;65489;52.048;6.090;2023-06-04T00:14:17;0.40;;;0.30;;
76599;SDS011;65489;52.048;6.090;2023-06-04T00:16:43;0.60;;;0.30;;
76599;SDS011;65489;52.048;6.090;2023-06-04T00:19:08;0.43;;;0.40;;
76599;SDS011;65489;52.048;6.090;2023-06-04T00:21:34;0.73;;;0.22;;
76599;SDS011;65489;52.048;6.090;2023-06-04T00:24:00;0.50;;;0.30;;
76599;SDS011;65489;52.048;6.090;2023-06-04T00:26:26;0.55;;;0.30;;
76599;SDS011;65489;52.048;6.090;2023-06-04T00:28:54;0.40;;;0.40;;
76599;SDS011;65489;52.048;6.090;2023-06-04T00:31:19;0.65;;;0.32;;
76599;SDS011;65489;52.048;6.090;2023-06-04T00:33:46;0.80;;;0.50;;
76599;SDS011;65489;52.048;6.090;2023-06-04T00:36:14;0.60;;;0.40;;
76599;SDS011;65489;52.048;6.090;2023-06-04T00:38:39;0.47;;;0.25;;
76599;SDS011;65489;52.048;6.090;2023-06-04T00:41:05;0.70;;;0.40;;
76599;SDS011;65489;52.048;6.090;2023-06-04T00:43:30;0.50;;;0.38;;
76599;SDS011;65489;52.048;6.090;2023-06-04T00:45:57;0.88;;;0.30;;
76599;SDS011;65489;52.048;6.090;2023-06-04T00:48:23;1.15;;;0.55;;
76599;SDS011;65489;52.048;6.090;2023-06-04T00:53:19;0.50;;;0.30;;
76599;SDS011;65489;52.048;6.090;2023-06-04T00:55:45;0.50;;;0.30;;
76599;SDS011;65489;52.048;6.090;2023-06-04T00:58:11;0.40;;;0.30;;
76599;SDS011;65489;52.048;6.090;2023-06-04T01:00:37;0.45;;;0.30;;
76599;SDS011;65489;52.048;6.090;2023-06-04T01:03:04;0.43;;;0.30;;
76599;SDS011;65489;52.048;6.090;2023-06-04T01:05:36;0.75;;;0.40;;
76599;SDS011;65489;52.048;6.090;2023-06-04T01:08:04;0.47;;;0.30;;
76599;SDS011;65489;52.048;6.090;2023-06-04T01:10:30;0.45;;;0.35;;
76599;SDS011;65489;52.048;6.090;2023-06-04T01:12:56;0.68;;;0.30;;
76599;SDS011;65489;52.048;6.090;2023-06-04T01:15:21;0.50;;;0.25;;
76599;SDS011;65489;52.048;6.090;2023-06-04T01:17:48;0.43;;;0.30;;
76599;SDS011;65489;52.048;6.090;2023-06-04T01:25:37;0.47;;;0.32;;
76599;SDS011;65489;52.048;6.090;2023-06-04T01:28:05;0.40;;;0.22;;
76599;SDS011;65489;52.048;6.090;2023-06-04T01:30:32;0.93;;;0.30;;
76599;SDS011;65489;52.048;6.090;2023-06-04T01:32:59;1.08;;;0.25;;
76599;SDS011;65489;52.048;6.090;2023-06-04T01:35:25;0.30;;;0.22;;
76599;SDS011;65489;52.048;6.090;2023-06-04T01:37:52;0.50;;;0.30;;
76599;SDS011;65489;52.048;6.090;2023-06-04T01:40:18;0.60;;;0.40;;
76599;SDS011;65489;52.048;6.090;2023-06-04T01:42:43;0.40;;;0.30;;
76599;SDS011;65489;52.048;6.090;2023-06-04T01:45:09;0.43;;;0.30;;
76599;SDS011;65489;52.048;6.090;2023-06-04T01:47:35;0.70;;;0.40;;
76599;SDS011;65489;52.048;6.090;2023-06-04T01:50:02;0.90;;;0.30;;
76599;SDS011;65489;52.048;6.090;2023-06-04T01:52:30;0.77;;;0.30;;
76599;SDS011;65489;52.048;6.090;2023-06-04T01:54:56;0.57;;;0.40;;
76599;SDS011;65489;52.048;6.090;2023-06-04T01:57:21;0.38;;;0.30;;
76599;SDS011;65489;52.048;6.090;2023-06-04T01:59:47;0.30;;;0.20;;
76599;SDS011;65489;52.048;6.090;2023-06-04T02:02:13;0.75;;;0.50;;
76599;SDS011;65489;52.048;6.090;2023-06-04T02:04:40;1.00;;;0.38;;
76599;SDS011;65489;52.048;6.090;2023-06-04T02:07:08;0.73;;;0.32;;
76599;SDS011;65489;52.048;6.090;2023-06-04T02:09:34;0.40;;;0.30;;
76599;SDS011;65489;52.048;6.090;2023-06-04T02:12:00;0.40;;;0.30;;
76599;SDS011;65489;52.048;6.090;2023-06-04T02:14:26;0.68;;;0.30;;
76599;SDS011;65489;52.048;6.090;2023-06-04T02:16:52;0.30;;;0.20;;
76599;SDS011;65489;52.048;6.090;2023-06-04T02:19:19;0.82;;;0.40;;
76599;SDS011;65489;52.048;6.090;2023-06-04T02:21:45;0.82;;;0.40;;
76599;SDS011;65489;52.048;6.090;2023-06-04T02:24:11;0.70;;;0.30;;
76599;SDS011;65489;52.048;6.090;2023-06-04T02:26:36;1.75;;;0.40;;
76599;SDS011;65489;52.048;6.090;2023-06-04T02:29:02;0.60;;;0.32;;
76599;SDS011;65489;52.048;6.090;2023-06-04T02:31:27;1.02;;;0.35;;
76599;SDS011;65489;52.048;6.090;2023-06-04T02:33:53;0.95;;;0.50;;
76599;SDS011;65489;52.048;6.090;2023-06-04T02:36:18;1.08;;;0.35;;
76599;SDS011;65489;52.048;6.090;2023-06-04T02:38:44;0.43;;;0.32;;
76599;SDS011;65489;52.048;6.090;2023-06-04T02:41:10;0.90;;;0.30;;
76599;SDS011;65489;52.048;6.090;2023-06-04T02:43:36;0.38;;;0.20;;
76599;SDS011;65489;52.048;6.090;2023-06-04T02:46:01;0.68;;;0.30;;
76599;SDS011;65489;52.048;6.090;2023-06-04T02:48:27;0.30;;;0.28;;
76599;SDS011;65489;52.048;6.090;2023-06-04T02:50:52;0.90;;;0.32;;
76599;SDS011;65489;52.048;6.090;2023-06-04T02:53:18;0.60;;;0.40;;
76599;SDS011;65489;52.048;6.090;2023-06-04T02:55:43;0.80;;;0.40;;
76599;SDS011;65489;52.048;6.090;2023-06-04T02:58:09;0.60;;;0.50;;
76599;SDS011;65489;52.048;6.090;2023-06-04T03:00:34;2.22;;;0.60;;
76599;SDS011;65489;52.048;6.090;2023-06-04T03:03:00;1.58;;;0.38;;
76599;SDS011;65489;52.048;6.090;2023-06-04T03:05:26;0.40;;;0.38;;
76599;SDS011;65489;52.048;6.090;2023-06-04T03:07:52;0.50;;;0.30;;
76599;SDS011;65489;52.048;6.090;2023-06-04T03:10:18;0.50;;;0.40;;
76599;SDS011;65489;52.048;6.090;2023-06-04T03:12:43;0.65;;;0.40;;
76599;SDS011;65489;52.048;6.090;2023-06-04T03:15:09;0.50;;;0.32;;
76599;SDS011;65489;52.048;6.090;2023-06-04T03:17:35;0.70;;;0.30;;
76599;SDS011;65489;52.048;6.090;2023-06-04T03:20:00;0.95;;;0.47;;
76599;SDS011;65489;52.048;6.090;2023-06-04T03:22:26;1.02;;;0.40;;
76599;SDS011;65489;52.048;6.090;2023-06-04T03:24:53;0.40;;;0.30;;
76599;SDS011;65489;52.048;6.090;2023-06-04T03:27:19;0.70;;;0.40;;
76599;SDS011;65489;52.048;6.090;2023-06-04T03:29:45;1.40;;;0.40;;
76599;SDS011;65489;52.048;6.090;2023-06-04T03:32:12;0.68;;;0.35;;
76599;SDS011;65489;52.048;6.090;2023-06-04T03:34:38;0.63;;;0.30;;
76599;SDS011;65489;52.048;6.090;2023-06-04T03:37:03;0.57;;;0.40;;
76599;SDS011;65489;52.048;6.090;2023-06-04T03:39:29;0.60;;;0.40;;
76599;SDS011;65489;52.048;6.090;2023-06-04T03:41:56;0.68;;;0.40;;
76599;SDS011;65489;52.048;6.090;2023-06-04T03:44:23;0.70;;;0.30;;
76599;SDS011;65489;52.048;6.090;2023-06-04T03:46:49;1.98;;;0.40;;
76599;SDS011;65489;52.048;6.090;2023-06-04T03:49:16;0.73;;;0.40;;
76599;SDS011;65489;52.048;6.090;2023-06-04T03:51:44;1.95;;;0.40;;
76599;SDS011;65489;52.048;6.090;2023-06-04T03:54:10;1.75;;;0.40;;
76599;SDS011;65489;52.048;6.090;2023-06-04T03:56:37;0.65;;;0.47;;
76599;SDS011;65489;52.048;6.090;2023-06-04T03:59:02;0.52;;;0.30;;
76599;SDS011;65489;52.048;6.090;2023-06-04T04:01:28;0.50;;;0.40;;
76599;SDS011;65489;52.048;6.090;2023-06-04T04:03:55;0.90;;;0.50;;
76599;SDS011;65489;52.048;6.090;2023-06-04T04:06:20;1.08;;;0.40;;
76599;SDS011;65489;52.048;6.090;2023-06-04T04:08:46;0.50;;;0.35;;
76599;SDS011;65489;52.048;6.090;2023-06-04T04:11:15;0.65;;;0.50;;
76599;SDS011;65489;52.048;6.090;2023-06-04T04:13:40;0.80;;;0.50;;
76599;SDS011;65489;52.048;6.090;2023-06-04T04:16:06;0.88;;;0.47;;
76599;SDS011;65489;52.048;6.090;2023-06-04T04:18:35;0.60;;;0.30;;
76599;SDS011;65489;52.048;6.090;2023-06-04T04:21:01;0.68;;;0.50;;
76599;SDS011;65489;52.048;6.090;2023-06-04T04:23:28;0.55;;;0.40;;
76599;SDS011;65489;52.048;6.090;2023-06-04T04:25:53;0.98;;;0.50;;
76599;SDS011;65489;52.048;6.090;2023-06-04T04:28:22;0.60;;;0.40;;
76599;SDS011;65489;52.048;6.090;2023-06-04T04:30:48;0.55;;;0.30;;
76599;SDS011;65489;52.048;6.090;2023-06-04T04:33:15;0.63;;;0.35;;
76599;SDS011;65489;52.048;6.090;2023-06-04T04:38:10;0.50;;;0.40;;
76599;SDS011;65489;52.048;6.090;2023-06-04T04:40:42;0.55;;;0.40;;
76599;SDS011;65489;52.048;6.090;2023-06-04T04:43:09;0.80;;;0.45;;
76599;SDS011;65489;52.048;6.090;2023-06-04T04:45:35;1.15;;;0.50;;
76599;SDS011;65489;52.048;6.090;2023-06-04T04:48:02;1.25;;;0.52;;
76599;SDS011;65489;52.048;6.090;2023-06-04T04:50:28;1.15;;;0.50;;
76599;SDS011;65489;52.048;6.090;2023-06-04T04:52:54;0.70;;;0.60;;
76599;SDS011;65489;52.048;6.090;2023-06-04T04:55:19;1.17;;;0.60;;
76599;SDS011;65489;52.048;6.090;2023-06-04T04:57:47;0.80;;;0.50;;
76599;SDS011;65489;52.048;6.090;2023-06-04T05:00:13;1.70;;;0.57;;
76599;SDS011;65489;52.048;6.090;2023-06-04T05:02:43;0.93;;;0.63;;
76599;SDS011;65489;52.048;6.090;2023-06-04T05:05:09;0.63;;;0.40;;
76599;SDS011;65489;52.048;6.090;2023-06-04T05:07:36;1.17;;;0.57;;
76599;SDS011;65489;52.048;6.090;2023-06-04T05:10:02;0.63;;;0.50;;
76599;SDS011;65489;52.048;6.090;2023-06-04T05:12:30;0.73;;;0.50;;
76599;SDS011;65489;52.048;6.090;2023-06-04T05:14:58;1.30;;;0.65;;
76599;SDS011;65489;52.048;6.090;2023-06-04T05:17:23;2.58;;;0.80;;
76599;SDS011;65489;52.048;6.090;2023-06-04T05:19:56;0.50;;;0.43;;
76599;SDS011;65489;52.048;6.090;2023-06-04T05:22:38;1.70;;;0.77;;
76599;SDS011;65489;52.048;6.090;2023-06-04T05:25:05;1.33;;;0.50;;
76599;SDS011;65489;52.048;6.090;2023-06-04T05:27:31;0.73;;;0.40;;
76599;SDS011;65489;52.048;6.090;2023-06-04T05:29:58;1.42;;;0.60;;
76599;SDS011;65489;52.048;6.090;2023-06-04T05:32:24;0.50;;;0.40;;
76599;SDS011;65489;52.048;6.090;2023-06-04T05:34:57;0.70;;;0.60;;
76599;SDS011;65489;52.048;6.090;2023-06-04T05:37:24;1.40;;;0.60;;
76599;SDS011;65489;52.048;6.090;2023-06-04T05:39:57;0.60;;;0.50;;
76599;SDS011;65489;52.048;6.090;2023-06-04T05:42:23;0.82;;;0.52;;
76599;SDS011;65489;52.048;6.090;2023-06-04T05:44:49;1.95;;;0.50;;
76599;SDS011;65489;52.048;6.090;2023-06-04T05:47:17;0.70;;;0.38;;
76599;SDS011;65489;52.048;6.090;2023-06-04T05:49:43;1.30;;;0.68;;
76599;SDS011;65489;52.048;6.090;2023-06-04T05:52:09;1.23;;;0.50;;
76599;SDS011;65489;52.048;6.090;2023-06-04T05:54:35;0.60;;;0.50;;
76599;SDS011;65489;52.048;6.090;2023-06-04T05:57:02;2.08;;;0.70;;
76599;SDS011;65489;52.048;6.090;2023-06-04T05:59:29;0.73;;;0.50;;
76599;SDS011;65489;52.048;6.090;2023-06-04T06:01:55;0.80;;;0.50;;
76599;SDS011;65489;52.048;6.090;2023-06-04T06:04:22;1.98;;;0.80;;
76599;SDS011;65489;52.048;6.090;2023-06-04T06:06:47;3.63;;;0.77;;
76599;SDS011;65489;52.048;6.090;2023-06-04T06:09:14;0.60;;;0.50;;
76599;SDS011;65489;52.048;6.090;2023-06-04T06:11:41;1.73;;;0.70;;
76599;SDS011;65489;52.048;6.090;2023-06-04T06:14:07;0.52;;;0.43;;
76599;SDS011;65489;52.048;6.090;2023-06-04T06:16:33;0.82;;;0.60;;
76599;SDS011;65489;52.048;6.090;2023-06-04T06:18:59;0.90;;;0.60;;
76599;SDS011;65489;52.048;6.090;2023-06-04T06:21:25;0.60;;;0.50;;
76599;SDS011;65489;52.048;6.090;2023-06-04T06:23:51;1.33;;;0.50;;
76599;SDS011;65489;52.048;6.090;2023-06-04T06:26:20;2.08;;;0.80;;
76599;SDS011;65489;52.048;6.090;2023-06-04T06:28:50;1.40;;;0.88;;
76599;SDS011;65489;52.048;6.090;2023-06-04T06:31:15;0.52;;;0.50;;
76599;SDS011;65489;52.048;6.090;2023-06-04T06:33:41;1.25;;;0.80;;
76599;SDS011;65489;52.048;6.090;2023-06-04T06:36:10;0.77;;;0.60;;
76599;SDS011;65489;52.048;6.090;2023-06-04T06:38:39;2.40;;;0.80;;
76599;SDS011;65489;52.048;6.090;2023-06-04T06:41:04;1.10;;;0.60;;
76599;SDS011;65489;52.048;6.090;2023-06-04T06:43:30;1.13;;;0.70;;
76599;SDS011;65489;52.048;6.090;2023-06-04T06:45:56;1.70;;;0.40;;
76599;SDS011;65489;52.048;6.090;2023-06-04T06:48:22;0.88;;;0.50;;
76599;SDS011;65489;52.048;6.090;2023-06-04T06:50:47;3.15;;;0.70;;
76599;SDS011;65489;52.048;6.090;2023-06-04T06:53:13;0.80;;;0.50;;
76599;SDS011;65489;52.048;6.090;2023-06-04T06:55:38;0.50;;;0.30;;
76599;SDS011;65489;52.048;6.090;2023-06-04T06:58:04;0.82;;;0.60;;
76599;SDS011;65489;52.048;6.090;2023-06-04T07:00:29;1.35;;;0.60;;
76599;SDS011;65489;52.048;6.090;2023-06-04T07:02:55;1.40;;;0.82;;
76599;SDS011;65489;52.048;6.090;2023-06-04T07:05:21;1.17;;;0.70;;
76599;SDS011;65489;52.048;6.090;2023-06-04T07:07:46;1.35;;;0.50;;
76599;SDS011;65489;52.048;6.090;2023-06-04T07:10:13;1.70;;;0.40;;
76599;SDS011;65489;52.048;6.090;2023-06-04T07:12:39;4.60;;;0.60;;
76599;SDS011;65489;52.048;6.090;2023-06-04T07:15:05;1.33;;;0.60;;
76599;SDS011;65489;52.048;6.090;2023-06-04T07:17:31;1.25;;;0.60;;
76599;SDS011;65489;52.048;6.090;2023-06-04T07:19:57;0.82;;;0.50;;
76599;SDS011;65489;52.048;6.090;2023-06-04T07:22:22;0.95;;;0.55;;
76599;SDS011;65489;52.048;6.090;2023-06-04T07:24:48;1.67;;;0.52;;
76599;SDS011;65489;52.048;6.090;2023-06-04T07:27:14;2.25;;;0.73;;
76599;SDS011;65489;52.048;6.090;2023-06-04T07:29:40;2.15;;;0.60;;
76599;SDS011;65489;52.048;6.090;2023-06-04T07:32:08;1.53;;;0.60;;
76599;SDS011;65489;52.048;6.090;2023-06-04T07:34:33;1.52;;;0.60;;
76599;SDS011;65489;52.048;6.090;2023-06-04T07:36:59;1.98;;;0.70;;
76599;SDS011;65489;52.048;6.090;2023-06-04T07:39:25;1.30;;;0.50;;
76599;SDS011;65489;52.048;6.090;2023-06-04T07:41:50;1.27;;;0.70;;
76599;SDS011;65489;52.048;6.090;2023-06-04T07:44:15;2.45;;;0.70;;
76599;SDS011;65489;52.048;6.090;2023-06-04T07:46:41;1.65;;;0.57;;
76599;SDS011;65489;52.048;6.090;2023-06-04T07:49:06;1.70;;;0.70;;
76599;SDS011;65489;52.048;6.090;2023-06-04T07:51:33;1.70;;;0.60;;
76599;SDS011;65489;52.048;6.090;2023-06-04T07:53:59;0.73;;;0.60;;
76599;SDS011;65489;52.048;6.090;2023-06-04T07:56:25;1.10;;;0.73;;
76599;SDS011;65489;52.048;6.090;2023-06-04T07:58:52;1.90;;;0.60;;
76599;SDS011;65489;52.048;6.090;2023-06-04T08:01:17;3.45;;;0.70;;
76599;SDS011;65489;52.048;6.090;2023-06-04T08:03:42;0.88;;;0.57;;
76599;SDS011;65489;52.048;6.090;2023-06-04T08:06:08;1.10;;;0.65;;
76599;SDS011;65489;52.048;6.090;2023-06-04T08:08:35;2.10;;;0.50;;
76599;SDS011;65489;52.048;6.090;2023-06-04T08:11:00;6.25;;;0.80;;
76599;SDS011;65489;52.048;6.090;2023-06-04T08:13:26;0.70;;;0.45;;
76599;SDS011;65489;52.048;6.090;2023-06-04T08:15:51;1.85;;;0.68;;
76599;SDS011;65489;52.048;6.090;2023-06-04T08:18:17;2.55;;;0.40;;
76599;SDS011;65489;52.048;6.090;2023-06-04T08:20:42;1.15;;;0.50;;
76599;SDS011;65489;52.048;6.090;2023-06-04T08:23:08;1.30;;;0.43;;
76599;SDS011;65489;52.048;6.090;2023-06-04T08:25:33;2.72;;;0.60;;
76599;SDS011;65489;52.048;6.090;2023-06-04T08:27:59;1.33;;;0.60;;
76599;SDS011;65489;52.048;6.090;2023-06-04T08:30:24;2.25;;;0.60;;
76599;SDS011;65489;52.048;6.090;2023-06-04T08:32:50;0.90;;;0.47;;
76599;SDS011;65489;52.048;6.090;2023-06-04T08:35:16;1.13;;;0.40;;
76599;SDS011;65489;52.048;6.090;2023-06-04T08:37:42;3.58;;;0.52;;
76599;SDS011;65489;52.048;6.090;2023-06-04T08:40:08;3.53;;;0.70;;
76599;SDS011;65489;52.048;6.090;2023-06-04T08:42:38;1.83;;;0.85;;
76599;SDS011;65489;52.048;6.090;2023-06-04T08:45:10;2.13;;;0.52;;
76599;SDS011;65489;52.048;6.090;2023-06-04T08:47:38;1.55;;;0.70;;
76599;SDS011;65489;52.048;6.090;2023-06-04T08:50:09;0.65;;;0.40;;
76599;SDS011;65489;52.048;6.090;2023-06-04T08:52:37;1.35;;;0.60;;
76599;SDS011;65489;52.048;6.090;2023-06-04T08:55:03;2.33;;;0.70;;
76599;SDS011;65489;52.048;6.090;2023-06-04T08:57:32;1.08;;;0.60;;
76599;SDS011;65489;52.048;6.090;2023-06-04T08:59:58;1.90;;;0.50;;
76599;SDS011;65489;52.048;6.090;2023-06-04T09:02:25;1.20;;;0.55;;
76599;SDS011;65489;52.048;6.090;2023-06-04T09:04:52;1.45;;;0.50;;
76599;SDS011;65489;52.048;6.090;2023-06-04T09:07:18;1.83;;;0.50;;
76599;SDS011;65489;52.048;6.090;2023-06-04T09:09:45;1.00;;;0.40;;
76599;SDS011;65489;52.048;6.090;2023-06-04T09:12:13;1.08;;;0.50;;
76599;SDS011;65489;52.048;6.090;2023-06-04T09:14:42;4.15;;;0.70;;
76599;SDS011;65489;52.048;6.090;2023-06-04T09:17:08;2.17;;;0.68;;
76599;SDS011;65489;52.048;6.090;2023-06-04T09:19:33;1.42;;;0.50;;
76599;SDS011;65489;52.048;6.090;2023-06-04T09:21:59;1.30;;;0.55;;
76599;SDS011;65489;52.048;6.090;2023-06-04T09:24:41;0.60;;;0.40;;
76599;SDS011;65489;52.048;6.090;2023-06-04T09:27:27;1.10;;;0.40;;
76599;SDS011;65489;52.048;6.090;2023-06-04T09:30:06;0.88;;;0.57;;
76599;SDS011;65489;52.048;6.090;2023-06-04T09:32:34;0.80;;;0.50;;
76599;SDS011;65489;52.048;6.090;2023-06-04T09:35:16;1.10;;;0.60;;
76599;SDS011;65489;52.048;6.090;2023-06-04T09:37:43;1.10;;;0.43;;
76599;SDS011;65489;52.048;6.090;2023-06-04T09:40:23;2.38;;;0.57;;
76599;SDS011;65489;52.048;6.090;2023-06-04T09:42:49;6.93;;;0.80;;
76599;SDS011;65489;52.048;6.090;2023-06-04T09:45:31;0.73;;;0.40;;
76599;SDS011;65489;52.048;6.090;2023-06-04T09:47:58;0.95;;;0.40;;
76599;SDS011;65489;52.048;6.090;2023-06-04T09:50:31;1.02;;;0.50;;
76599;SDS011;65489;52.048;6.090;2023-06-04T09:52:58;1.92;;;0.60;;
76599;SDS011;65489;52.048;6.090;2023-06-04T09:55:25;1.42;;;0.50;;
76599;SDS011;65489;52.048;6.090;2023-06-04T09:57:50;1.73;;;0.73;;
76599;SDS011;65489;52.048;6.090;2023-06-04T10:00:18;2.45;;;0.95;;
76599;SDS011;65489;52.048;6.090;2023-06-04T10:03:01;0.95;;;0.55;;
76599;SDS011;65489;52.048;6.090;2023-06-04T10:05:29;2.55;;;1.08;;
76599;SDS011;65489;52.048;6.090;2023-06-04T10:07:57;1.92;;;0.88;;
76599;SDS011;65489;52.048;6.090;2023-06-04T10:10:24;1.70;;;0.63;;
76599;SDS011;65489;52.048;6.090;2023-06-04T10:12:56;2.50;;;1.30;;
76599;SDS011;65489;52.048;6.090;2023-06-04T10:15:27;1.40;;;0.90;;
76599;SDS011;65489;52.048;6.090;2023-06-04T10:17:53;4.35;;;1.50;;
76599;SDS011;65489;52.048;6.090;2023-06-04T10:20:20;2.58;;;1.08;;
76599;SDS011;65489;52.048;6.090;2023-06-04T10:22:46;3.88;;;1.35;;
76599;SDS011;65489;52.048;6.090;2023-06-04T10:25:13;3.03;;;0.82;;
76599;SDS011;65489;52.048;6.090;2023-06-04T10:27:39;3.58;;;1.20;;
76599;SDS011;65489;52.048;6.090;2023-06-04T10:30:05;3.72;;;1.00;;
76599;SDS011;65489;52.048;6.090;2023-06-04T10:32:33;3.63;;;1.02;;
76599;SDS011;65489;52.048;6.090;2023-06-04T10:35:03;2.00;;;0.75;;
76599;SDS011;65489;52.048;6.090;2023-06-04T10:37:34;1.55;;;0.60;;
76599;SDS011;65489;52.048;6.090;2023-06-04T10:40:00;2.40;;;0.90;;
76599;SDS011;65489;52.048;6.090;2023-06-04T10:42:26;1.75;;;1.05;;
76599;SDS011;65489;52.048;6.090;2023-06-04T10:45:03;1.73;;;1.05;;
76599;SDS011;65489;52.048;6.090;2023-06-04T10:47:29;3.03;;;0.95;;
76599;SDS011;65489;52.048;6.090;2023-06-04T10:53:07;0.90;;;0.73;;
76599;SDS011;65489;52.048;6.090;2023-06-04T10:55:33;3.38;;;1.10;;
76599;SDS011;65489;52.048;6.090;2023-06-04T10:58:09;1.42;;;0.88;;
76599;SDS011;65489;52.048;6.090;2023-06-04T11:00:38;1.98;;;0.85;;
76599;SDS011;65489;52.048;6.090;2023-06-04T11:03:05;1.48;;;0.65;;
76599;SDS011;65489;52.048;6.090;2023-06-04T11:05:44;1.30;;;0.77;;
76599;SDS011;65489;52.048;6.090;2023-06-04T11:08:11;1.02;;;0.60;;
76599;SDS011;65489;52.048;6.090;2023-06-04T11:10:40;3.60;;;0.82;;
76599;SDS011;65489;52.048;6.090;2023-06-04T11:13:07;0.93;;;0.60;;
76599;SDS011;65489;52.048;6.090;2023-06-04T11:18:08;0.90;;;0.47;;
76599;SDS011;65489;52.048;6.090;2023-06-04T11:20:38;0.68;;;0.40;;
76599;SDS011;65489;52.048;6.090;2023-06-04T11:23:04;1.00;;;0.70;;
76599;SDS011;65489;52.048;6.090;2023-06-04T11:25:31;1.45;;;0.65;;
76599;SDS011;65489;52.048;6.090;2023-06-04T11:27:58;1.25;;;0.50;;
76599;SDS011;65489;52.048;6.090;2023-06-04T11:30:24;1.23;;;0.52;;
76599;SDS011;65489;52.048;6.090;2023-06-04T11:32:50;0.98;;;0.50;;
76599;SDS011;65489;52.048;6.090;2023-06-04T11:35:15;2.17;;;0.70;;
76599;SDS011;65489;52.048;6.090;2023-06-04T11:37:42;1.10;;;0.60;;
76599;SDS011;65489;52.048;6.090;2023-06-04T11:40:18;1.10;;;0.60;;
76599;SDS011;65489;52.048;6.090;2023-06-04T11:42:45;1.30;;;0.63;;
76599;SDS011;65489;52.048;6.090;2023-06-04T11:45:15;0.90;;;0.60;;
76599;SDS011;65489;52.048;6.090;2023-06-04T11:47:52;0.98;;;0.60;;
76599;SDS011;65489;52.048;6.090;2023-06-04T11:50:19;0.65;;;0.50;;
76599;SDS011;65489;52.048;6.090;2023-06-04T11:52:45;0.90;;;0.60;;
76599;SDS011;65489;52.048;6.090;2023-06-04T11:55:12;2.28;;;0.60;;
76599;SDS011;65489;52.048;6.090;2023-06-04T11:57:38;1.15;;;0.50;;
76599;SDS011;65489;52.048;6.090;2023-06-04T12:00:05;1.20;;;0.60;;
76599;SDS011;65489;52.048;6.090;2023-06-04T12:02:37;1.23;;;0.50;;
76599;SDS011;65489;52.048;6.090;2023-06-04T12:05:10;0.98;;;0.60;;
76599;SDS011;65489;52.048;6.090;2023-06-04T12:07:39;0.98;;;0.60;;
76599;SDS011;65489;52.048;6.090;2023-06-04T12:10:06;1.08;;;0.50;;
76599;SDS011;65489;52.048;6.090;2023-06-04T12:12:36;0.95;;;0.50;;
76599;SDS011;65489;52.048;6.090;2023-06-04T12:15:02;1.10;;;0.70;;
76599;SDS011;65489;52.048;6.090;2023-06-04T12:17:30;1.00;;;0.80;;
76599;SDS011;65489;52.048;6.090;2023-06-04T12:19:56;0.68;;;0.50;;
76599;SDS011;65489;52.048;6.090;2023-06-04T12:22:23;0.88;;;0.40;;
76599;SDS011;65489;52.048;6.090;2023-06-04T12:24:56;0.80;;;0.30;;
76599;SDS011;65489;52.048;6.090;2023-06-04T12:27:23;0.63;;;0.52;;
76599;SDS011;65489;52.048;6.090;2023-06-04T12:29:58;0.73;;;0.60;;
76599;SDS011;65489;52.048;6.090;2023-06-04T12:32:26;0.73;;;0.60;;
76599;SDS011;65489;52.048;6.090;2023-06-04T12:34:51;0.93;;;0.43;;
76599;SDS011;65489;52.048;6.090;2023-06-04T12:37:17;2.22;;;0.57;;
76599;SDS011;65489;52.048;6.090;2023-06-04T12:39:43;1.00;;;0.50;;
76599;SDS011;65489;52.048;6.090;2023-06-04T12:42:08;0.90;;;0.60;;
76599;SDS011;65489;52.048;6.090;2023-06-04T12:44:38;0.95;;;0.50;;
76599;SDS011;65489;52.048;6.090;2023-06-04T12:47:04;1.17;;;0.50;;
76599;SDS011;65489;52.048;6.090;2023-06-04T12:49:30;1.15;;;0.50;;
76599;SDS011;65489;52.048;6.090;2023-06-04T12:51:55;1.08;;;0.50;;
76599;SDS011;65489;52.048;6.090;2023-06-04T12:54:21;0.85;;;0.50;;
76599;SDS011;65489;52.048;6.090;2023-06-04T12:56:47;0.60;;;0.40;;
76599;SDS011;65489;52.048;6.090;2023-06-04T12:59:13;0.98;;;0.35;;
76599;SDS011;65489;52.048;6.090;2023-06-04T13:01:39;0.75;;;0.47;;
76599;SDS011;65489;52.048;6.090;2023-06-04T13:04:04;1.08;;;0.50;;
76599;SDS011;65489;52.048;6.090;2023-06-04T13:06:30;1.15;;;0.60;;
76599;SDS011;65489;52.048;6.090;2023-06-04T13:08:56;0.75;;;0.47;;
76599;SDS011;65489;52.048;6.090;2023-06-04T13:11:21;1.13;;;0.40;;
76599;SDS011;65489;52.048;6.090;2023-06-04T13:13:47;0.93;;;0.60;;
76599;SDS011;65489;52.048;6.090;2023-06-04T13:16:13;1.15;;;0.60;;
76599;SDS011;65489;52.048;6.090;2023-06-04T13:18:38;1.80;;;0.70;;
76599;SDS011;65489;52.048;6.090;2023-06-04T13:21:04;1.65;;;0.70;;
76599;SDS011;65489;52.048;6.090;2023-06-04T13:23:30;0.65;;;0.50;;
76599;SDS011;65489;52.048;6.090;2023-06-04T13:25:55;1.15;;;0.57;;
76599;SDS011;65489;52.048;6.090;2023-06-04T13:28:20;0.70;;;0.40;;
76599;SDS011;65489;52.048;6.090;2023-06-04T13:30:46;0.70;;;0.50;;
76599;SDS011;65489;52.048;6.090;2023-06-04T13:33:12;1.02;;;0.52;;
76599;SDS011;65489;52.048;6.090;2023-06-04T13:35:37;1.00;;;0.60;;
76599;SDS011;65489;52.048;6.090;2023-06-04T13:38:06;1.98;;;0.57;;
76599;SDS011;65489;52.048;6.090;2023-06-04T13:40:33;0.73;;;0.57;;
76599;SDS011;65489;52.048;6.090;2023-06-04T13:42:59;2.83;;;0.60;;
76599;SDS011;65489;52.048;6.090;2023-06-04T13:45:24;2.55;;;0.52;;
76599;SDS011;65489;52.048;6.090;2023-06-04T13:47:50;1.10;;;0.60;;
76599;SDS011;65489;52.048;6.090;2023-06-04T13:50:15;0.90;;;0.60;;
76599;SDS011;65489;52.048;6.090;2023-06-04T13:52:41;0.95;;;0.63;;
76599;SDS011;65489;52.048;6.090;2023-06-04T13:55:07;0.70;;;0.43;;
76599;SDS011;65489;52.048;6.090;2023-06-04T13:57:32;0.82;;;0.40;;
76599;SDS011;65489;52.048;6.090;2023-06-04T13:59:58;2.10;;;0.57;;
76599;SDS011;65489;52.048;6.090;2023-06-04T14:02:23;0.50;;;0.43;;
76599;SDS011;65489;52.048;6.090;2023-06-04T14:04:49;0.85;;;0.60;;
76599;SDS011;65489;52.048;6.090;2023-06-04T14:07:24;0.80;;;0.60;;
76599;SDS011;65489;52.048;6.090;2023-06-04T14:09:57;1.75;;;0.35;;
76599;SDS011;65489;52.048;6.090;2023-06-04T14:12:23;0.90;;;0.55;;
76599;SDS011;65489;52.048;6.090;2023-06-04T14:15:07;0.70;;;0.60;;
76599;SDS011;65489;52.048;6.090;2023-06-04T14:17:33;1.00;;;0.50;;
76599;SDS011;65489;52.048;6.090;2023-06-04T14:19:59;0.65;;;0.50;;
76599;SDS011;65489;52.048;6.090;2023-06-04T14:22:25;1.13;;;0.50;;
76599;SDS011;65489;52.048;6.090;2023-06-04T14:24:50;0.80;;;0.50;;
76599;SDS011;65489;52.048;6.090;2023-06-04T14:27:16;0.80;;;0.60;;
76599;SDS011;65489;52.048;6.090;2023-06-04T14:29:41;0.80;;;0.60;;
76599;SDS011;65489;52.048;6.090;2023-06-04T14:32:07;0.60;;;0.40;;
76599;SDS011;65489;52.048;6.090;2023-06-04T14:34:32;0.73;;;0.50;;
76599;SDS011;65489;52.048;6.090;2023-06-04T14:36:58;0.90;;;0.60;;
76599;SDS011;65489;52.048;6.090;2023-06-04T14:39:25;1.45;;;0.50;;
76599;SDS011;65489;52.048;6.090;2023-06-04T14:41:51;0.50;;;0.40;;
76599;SDS011;65489;52.048;6.090;2023-06-04T14:44:17;1.98;;;0.47;;
76599;SDS011;65489;52.048;6.090;2023-06-04T14:46:43;0.68;;;0.47;;
76599;SDS011;65489;52.048;6.090;2023-06-04T14:49:09;1.27;;;0.57;;
76599;SDS011;65489;52.048;6.090;2023-06-04T14:51:34;1.38;;;0.57;;
76599;SDS011;65489;52.048;6.090;2023-06-04T14:53:59;1.00;;;0.57;;
76599;SDS011;65489;52.048;6.090;2023-06-04T14:56:25;1.20;;;0.70;;
76599;SDS011;65489;52.048;6.090;2023-06-04T14:58:52;1.23;;;0.50;;
76599;SDS011;65489;52.048;6.090;2023-06-04T15:01:17;1.52;;;0.70;;
76599;SDS011;65489;52.048;6.090;2023-06-04T15:03:43;1.17;;;0.70;;